Aviation weather information 2022-07-06 22:05 UTC

TAF(FTEO31)
FTEO31 EETN 061700 AAA
TAF AMD EETN 062015Z 0620/0718 19005KT 9999 SCT030CB TEMPO
     0620/0704 0800 BCFG BKN003 PROB40 TEMPO 0621/0624 SHRA BECMG
     0707/0709 27012KT TEMPO 0708/0716 3000 SHRA SCT010 BKN025CB=

TAF(FTEO33)
FTEO33 EEEI 061700
TAF EEEI 061730Z NIL= 

SIGMET(WSEO31)
WSEO31 EETN 062104
EETT SIGMET U03 VALID 062103/070100 EEMH-
EETT TALLINN FIR CNL SIGMET U01 062100/070100=
WSEO31 EETN 062100
EETT SIGMET U02 VALID 062100/070100 EEMH-
EETT TALLINN FIR SEV TURB FCST WI N5940 E02445 - N5940 E02520 - N5810
E02420 - N5810 E02345 - N5940 E02445 FL270/320 MOV E 5KT NC=
WSEO31 EETN 062041
EETT SIGMET U01 VALID 062100/070100 EEMH-
EETT TALLINN FIR SEV TURB FCST WI N5940 E02445- N5940 E02520 - N5810
E02420 - N5810 E02345 - N5940 E02445 FL270/320 MOV E 5KT NC=

Weather observation (METAR/SPECI)
METAR EETN 062150Z 18005KT 9999 FEW030 13/12 Q1010 NOSIG=
METAR EEEI 062150Z AUTO 15004KT 120V180 CAVOK 12/10 Q1010=
METAR EETU 062150Z AUTO 24004KT 9999 FEW098/// 14/12 Q1011=
METAR EEPU 062150Z AUTO 25004KT 9999 FEW110/// 14/11 Q1011=
METAR EEKE 062150Z AUTO 23007KT 200V260 9999NDV NCD 17/13 Q1010=
METAR EEKA 062150Z NIL=